sensor_id;sensor_type;location;lat;lon;timestamp;P1;durP1;ratioP1;P2;durP2;ratioP2
19828;SDS011;10075;50.924;4.396;2023-05-16T00:02:24;21.50;;;3.33;;
19828;SDS011;10075;50.924;4.396;2023-05-16T00:04:52;16.20;;;2.57;;
19828;SDS011;10075;50.924;4.396;2023-05-16T00:07:19;17.77;;;2.93;;
19828;SDS011;10075;50.924;4.396;2023-05-16T00:09:47;12.97;;;2.60;;
19828;SDS011;10075;50.924;4.396;2023-05-16T00:12:14;16.83;;;3.47;;
19828;SDS011;10075;50.924;4.396;2023-05-16T00:14:43;14.17;;;3.07;;
19828;SDS011;10075;50.924;4.396;2023-05-16T00:17:12;16.83;;;2.87;;
19828;SDS011;10075;50.924;4.396;2023-05-16T00:19:41;14.67;;;2.87;;
19828;SDS011;10075;50.924;4.396;2023-05-16T00:22:08;14.27;;;2.73;;
19828;SDS011;10075;50.924;4.396;2023-05-16T00:24:36;17.67;;;3.60;;
19828;SDS011;10075;50.924;4.396;2023-05-16T00:27:05;18.60;;;3.30;;
19828;SDS011;10075;50.924;4.396;2023-05-16T00:29:33;14.00;;;2.90;;
19828;SDS011;10075;50.924;4.396;2023-05-16T00:32:00;15.70;;;2.77;;
19828;SDS011;10075;50.924;4.396;2023-05-16T00:34:27;16.80;;;3.77;;
19828;SDS011;10075;50.924;4.396;2023-05-16T00:36:54;16.30;;;2.53;;
19828;SDS011;10075;50.924;4.396;2023-05-16T00:39:21;13.10;;;3.17;;
19828;SDS011;10075;50.924;4.396;2023-05-16T00:41:48;18.70;;;3.50;;
19828;SDS011;10075;50.924;4.396;2023-05-16T00:44:17;17.70;;;3.27;;
19828;SDS011;10075;50.924;4.396;2023-05-16T00:46:44;19.27;;;3.13;;
19828;SDS011;10075;50.924;4.396;2023-05-16T00:49:11;23.07;;;3.47;;
19828;SDS011;10075;50.924;4.396;2023-05-16T00:51:38;14.37;;;2.90;;
19828;SDS011;10075;50.924;4.396;2023-05-16T00:54:07;17.83;;;3.63;;
19828;SDS011;10075;50.924;4.396;2023-05-16T00:56:34;19.13;;;3.27;;
19828;SDS011;10075;50.924;4.396;2023-05-16T00:59:01;24.83;;;3.20;;
19828;SDS011;10075;50.924;4.396;2023-05-16T01:01:30;18.47;;;3.33;;
19828;SDS011;10075;50.924;4.396;2023-05-16T01:03:59;24.50;;;3.30;;
19828;SDS011;10075;50.924;4.396;2023-05-16T01:06:26;20.50;;;4.17;;
19828;SDS011;10075;50.924;4.396;2023-05-16T01:08:53;17.40;;;3.20;;
19828;SDS011;10075;50.924;4.396;2023-05-16T01:11:21;15.07;;;3.20;;
19828;SDS011;10075;50.924;4.396;2023-05-16T01:13:54;16.83;;;3.23;;
19828;SDS011;10075;50.924;4.396;2023-05-16T01:16:32;16.43;;;3.00;;
19828;SDS011;10075;50.924;4.396;2023-05-16T01:19:06;16.73;;;3.10;;
19828;SDS011;10075;50.924;4.396;2023-05-16T01:21:41;16.70;;;3.13;;
19828;SDS011;10075;50.924;4.396;2023-05-16T01:24:19;18.83;;;3.30;;
19828;SDS011;10075;50.924;4.396;2023-05-16T01:26:52;11.20;;;2.60;;
19828;SDS011;10075;50.924;4.396;2023-05-16T01:29:21;15.73;;;2.90;;
19828;SDS011;10075;50.924;4.396;2023-05-16T01:31:48;15.70;;;3.10;;
19828;SDS011;10075;50.924;4.396;2023-05-16T01:34:15;12.60;;;2.90;;
19828;SDS011;10075;50.924;4.396;2023-05-16T01:36:44;17.47;;;2.47;;
19828;SDS011;10075;50.924;4.396;2023-05-16T01:39:18;12.57;;;2.80;;
19828;SDS011;10075;50.924;4.396;2023-05-16T01:41:53;13.20;;;3.30;;
19828;SDS011;10075;50.924;4.396;2023-05-16T01:44:28;13.70;;;2.67;;
19828;SDS011;10075;50.924;4.396;2023-05-16T01:47:00;11.77;;;3.30;;
19828;SDS011;10075;50.924;4.396;2023-05-16T01:49:33;17.03;;;3.10;;
19828;SDS011;10075;50.924;4.396;2023-05-16T01:52:04;23.33;;;2.70;;
19828;SDS011;10075;50.924;4.396;2023-05-16T01:54:35;12.57;;;2.87;;
19828;SDS011;10075;50.924;4.396;2023-05-16T01:57:06;19.50;;;2.60;;
19828;SDS011;10075;50.924;4.396;2023-05-16T01:59:35;15.37;;;2.93;;
19828;SDS011;10075;50.924;4.396;2023-05-16T02:02:03;19.40;;;3.43;;
19828;SDS011;10075;50.924;4.396;2023-05-16T02:04:31;14.30;;;2.83;;
19828;SDS011;10075;50.924;4.396;2023-05-16T02:06:58;17.93;;;4.40;;
19828;SDS011;10075;50.924;4.396;2023-05-16T02:09:26;22.03;;;3.10;;
19828;SDS011;10075;50.924;4.396;2023-05-16T02:11:53;18.80;;;3.00;;
19828;SDS011;10075;50.924;4.396;2023-05-16T02:14:21;18.73;;;3.33;;
19828;SDS011;10075;50.924;4.396;2023-05-16T02:16:49;15.40;;;3.13;;
19828;SDS011;10075;50.924;4.396;2023-05-16T02:19:16;20.50;;;3.77;;
19828;SDS011;10075;50.924;4.396;2023-05-16T02:21:43;19.13;;;3.57;;
19828;SDS011;10075;50.924;4.396;2023-05-16T02:24:10;18.90;;;3.00;;
19828;SDS011;10075;50.924;4.396;2023-05-16T02:26:38;17.33;;;3.77;;
19828;SDS011;10075;50.924;4.396;2023-05-16T02:29:05;21.47;;;3.57;;
19828;SDS011;10075;50.924;4.396;2023-05-16T02:31:33;18.33;;;3.83;;
19828;SDS011;10075;50.924;4.396;2023-05-16T02:34:00;14.90;;;3.30;;
19828;SDS011;10075;50.924;4.396;2023-05-16T02:36:28;16.63;;;3.03;;
19828;SDS011;10075;50.924;4.396;2023-05-16T02:38:55;17.20;;;4.07;;
19828;SDS011;10075;50.924;4.396;2023-05-16T02:41:22;16.43;;;3.47;;
19828;SDS011;10075;50.924;4.396;2023-05-16T02:43:49;17.30;;;3.50;;
19828;SDS011;10075;50.924;4.396;2023-05-16T02:46:20;17.93;;;3.17;;
19828;SDS011;10075;50.924;4.396;2023-05-16T02:48:49;21.70;;;3.27;;
19828;SDS011;10075;50.924;4.396;2023-05-16T02:51:17;19.27;;;3.77;;
19828;SDS011;10075;50.924;4.396;2023-05-16T02:53:44;21.10;;;3.30;;
19828;SDS011;10075;50.924;4.396;2023-05-16T02:56:11;15.47;;;3.00;;
19828;SDS011;10075;50.924;4.396;2023-05-16T02:58:39;16.67;;;4.33;;
19828;SDS011;10075;50.924;4.396;2023-05-16T03:01:06;15.00;;;3.70;;
19828;SDS011;10075;50.924;4.396;2023-05-16T03:03:33;25.27;;;4.77;;
19828;SDS011;10075;50.924;4.396;2023-05-16T03:06:02;25.67;;;3.87;;
19828;SDS011;10075;50.924;4.396;2023-05-16T03:08:30;20.00;;;4.07;;
19828;SDS011;10075;50.924;4.396;2023-05-16T03:10:57;17.93;;;4.63;;
19828;SDS011;10075;50.924;4.396;2023-05-16T03:13:24;18.00;;;3.77;;
19828;SDS011;10075;50.924;4.396;2023-05-16T03:15:52;17.87;;;3.63;;
19828;SDS011;10075;50.924;4.396;2023-05-16T03:18:19;13.53;;;3.70;;
19828;SDS011;10075;50.924;4.396;2023-05-16T03:20:46;22.03;;;4.00;;
19828;SDS011;10075;50.924;4.396;2023-05-16T03:23:15;16.17;;;3.30;;
19828;SDS011;10075;50.924;4.396;2023-05-16T03:25:42;21.90;;;4.30;;
19828;SDS011;10075;50.924;4.396;2023-05-16T03:28:10;19.33;;;4.10;;
19828;SDS011;10075;50.924;4.396;2023-05-16T03:30:37;15.87;;;3.93;;
19828;SDS011;10075;50.924;4.396;2023-05-16T03:33:04;19.77;;;4.33;;
19828;SDS011;10075;50.924;4.396;2023-05-16T03:35:32;18.53;;;3.97;;
19828;SDS011;10075;50.924;4.396;2023-05-16T03:37:59;28.73;;;4.53;;
19828;SDS011;10075;50.924;4.396;2023-05-16T03:40:28;16.00;;;3.67;;
19828;SDS011;10075;50.924;4.396;2023-05-16T03:42:55;21.07;;;4.57;;
19828;SDS011;10075;50.924;4.396;2023-05-16T03:45:22;18.23;;;4.20;;
19828;SDS011;10075;50.924;4.396;2023-05-16T03:47:49;23.63;;;4.57;;
19828;SDS011;10075;50.924;4.396;2023-05-16T03:50:16;14.20;;;3.80;;
19828;SDS011;10075;50.924;4.396;2023-05-16T03:52:43;16.43;;;3.90;;
19828;SDS011;10075;50.924;4.396;2023-05-16T03:55:10;15.63;;;4.67;;
19828;SDS011;10075;50.924;4.396;2023-05-16T03:57:40;20.00;;;4.33;;
19828;SDS011;10075;50.924;4.396;2023-05-16T04:00:08;15.77;;;3.67;;
19828;SDS011;10075;50.924;4.396;2023-05-16T04:02:37;20.50;;;4.47;;
19828;SDS011;10075;50.924;4.396;2023-05-16T04:05:06;17.63;;;4.13;;
19828;SDS011;10075;50.924;4.396;2023-05-16T04:07:34;20.43;;;4.27;;
19828;SDS011;10075;50.924;4.396;2023-05-16T04:10:01;17.23;;;4.03;;
19828;SDS011;10075;50.924;4.396;2023-05-16T04:12:29;21.20;;;4.10;;
19828;SDS011;10075;50.924;4.396;2023-05-16T04:14:58;26.70;;;4.23;;
19828;SDS011;10075;50.924;4.396;2023-05-16T04:17:25;20.63;;;3.93;;
19828;SDS011;10075;50.924;4.396;2023-05-16T04:19:52;27.13;;;4.80;;
19828;SDS011;10075;50.924;4.396;2023-05-16T04:22:19;19.97;;;3.93;;
19828;SDS011;10075;50.924;4.396;2023-05-16T04:24:47;14.60;;;3.87;;
19828;SDS011;10075;50.924;4.396;2023-05-16T04:27:15;17.47;;;3.97;;
19828;SDS011;10075;50.924;4.396;2023-05-16T04:29:42;14.77;;;4.37;;
19828;SDS011;10075;50.924;4.396;2023-05-16T04:32:11;20.90;;;4.40;;
19828;SDS011;10075;50.924;4.396;2023-05-16T04:34:38;17.70;;;4.00;;
19828;SDS011;10075;50.924;4.396;2023-05-16T04:37:05;23.60;;;4.37;;
19828;SDS011;10075;50.924;4.396;2023-05-16T04:39:33;18.77;;;3.93;;
19828;SDS011;10075;50.924;4.396;2023-05-16T04:42:00;24.83;;;3.87;;
19828;SDS011;10075;50.924;4.396;2023-05-16T04:44:28;18.30;;;4.13;;
19828;SDS011;10075;50.924;4.396;2023-05-16T04:46:55;16.60;;;3.93;;
19828;SDS011;10075;50.924;4.396;2023-05-16T04:49:24;17.90;;;4.27;;
19828;SDS011;10075;50.924;4.396;2023-05-16T04:51:51;18.43;;;3.87;;
19828;SDS011;10075;50.924;4.396;2023-05-16T04:54:18;24.13;;;3.57;;
19828;SDS011;10075;50.924;4.396;2023-05-16T04:56:45;17.07;;;4.07;;
19828;SDS011;10075;50.924;4.396;2023-05-16T04:59:12;17.90;;;3.50;;
19828;SDS011;10075;50.924;4.396;2023-05-16T05:01:39;19.57;;;3.87;;
19828;SDS011;10075;50.924;4.396;2023-05-16T05:04:06;18.17;;;3.40;;
19828;SDS011;10075;50.924;4.396;2023-05-16T05:06:35;18.70;;;4.03;;
19828;SDS011;10075;50.924;4.396;2023-05-16T05:09:02;23.30;;;4.33;;
19828;SDS011;10075;50.924;4.396;2023-05-16T05:11:31;12.03;;;2.80;;
19828;SDS011;10075;50.924;4.396;2023-05-16T05:13:58;9.47;;;3.17;;
19828;SDS011;10075;50.924;4.396;2023-05-16T05:16:25;17.83;;;3.20;;
19828;SDS011;10075;50.924;4.396;2023-05-16T05:18:52;14.53;;;3.80;;
19828;SDS011;10075;50.924;4.396;2023-05-16T05:21:19;14.60;;;3.43;;
19828;SDS011;10075;50.924;4.396;2023-05-16T05:23:49;15.00;;;2.87;;
19828;SDS011;10075;50.924;4.396;2023-05-16T05:26:16;16.90;;;3.43;;
19828;SDS011;10075;50.924;4.396;2023-05-16T05:28:45;15.30;;;3.17;;
19828;SDS011;10075;50.924;4.396;2023-05-16T05:31:12;12.43;;;2.80;;
19828;SDS011;10075;50.924;4.396;2023-05-16T05:33:39;11.27;;;3.07;;
19828;SDS011;10075;50.924;4.396;2023-05-16T05:36:06;15.30;;;3.03;;
19828;SDS011;10075;50.924;4.396;2023-05-16T05:38:34;15.80;;;3.43;;
19828;SDS011;10075;50.924;4.396;2023-05-16T05:41:03;14.07;;;3.13;;
19828;SDS011;10075;50.924;4.396;2023-05-16T05:43:30;14.73;;;3.03;;
19828;SDS011;10075;50.924;4.396;2023-05-16T05:45:58;12.73;;;2.60;;
19828;SDS011;10075;50.924;4.396;2023-05-16T05:48:25;13.03;;;3.27;;
19828;SDS011;10075;50.924;4.396;2023-05-16T05:50:53;16.77;;;2.80;;
19828;SDS011;10075;50.924;4.396;2023-05-16T05:53:21;11.17;;;2.70;;
19828;SDS011;10075;50.924;4.396;2023-05-16T05:55:48;18.43;;;2.97;;
19828;SDS011;10075;50.924;4.396;2023-05-16T05:58:17;12.60;;;2.67;;
19828;SDS011;10075;50.924;4.396;2023-05-16T06:00:44;19.10;;;3.50;;
19828;SDS011;10075;50.924;4.396;2023-05-16T06:03:11;13.43;;;3.37;;
19828;SDS011;10075;50.924;4.396;2023-05-16T06:05:38;18.80;;;2.73;;
19828;SDS011;10075;50.924;4.396;2023-05-16T06:08:05;17.43;;;3.37;;
19828;SDS011;10075;50.924;4.396;2023-05-16T06:10:33;14.10;;;2.60;;
19828;SDS011;10075;50.924;4.396;2023-05-16T06:13:00;12.77;;;2.40;;
19828;SDS011;10075;50.924;4.396;2023-05-16T06:15:28;19.07;;;3.17;;
19828;SDS011;10075;50.924;4.396;2023-05-16T06:17:55;11.50;;;3.10;;
19828;SDS011;10075;50.924;4.396;2023-05-16T06:20:22;15.00;;;2.30;;
19828;SDS011;10075;50.924;4.396;2023-05-16T06:22:49;15.33;;;2.27;;
19828;SDS011;10075;50.924;4.396;2023-05-16T06:25:16;4.57;;;1.33;;
19828;SDS011;10075;50.924;4.396;2023-05-16T06:27:44;9.20;;;2.13;;
19828;SDS011;10075;50.924;4.396;2023-05-16T06:30:11;14.17;;;2.67;;
19828;SDS011;10075;50.924;4.396;2023-05-16T06:32:40;15.13;;;2.80;;
19828;SDS011;10075;50.924;4.396;2023-05-16T06:35:07;13.63;;;2.47;;
19828;SDS011;10075;50.924;4.396;2023-05-16T06:37:34;9.50;;;2.27;;
19828;SDS011;10075;50.924;4.396;2023-05-16T06:40:02;8.53;;;2.40;;
19828;SDS011;10075;50.924;4.396;2023-05-16T06:42:29;12.37;;;2.27;;
19828;SDS011;10075;50.924;4.396;2023-05-16T06:44:57;13.70;;;2.57;;
19828;SDS011;10075;50.924;4.396;2023-05-16T06:47:24;11.93;;;2.10;;
19828;SDS011;10075;50.924;4.396;2023-05-16T06:49:52;12.37;;;2.20;;
19828;SDS011;10075;50.924;4.396;2023-05-16T06:52:20;11.80;;;2.40;;
19828;SDS011;10075;50.924;4.396;2023-05-16T06:54:47;13.47;;;3.30;;
19828;SDS011;10075;50.924;4.396;2023-05-16T06:57:14;10.30;;;2.57;;
19828;SDS011;10075;50.924;4.396;2023-05-16T06:59:41;15.47;;;2.00;;
19828;SDS011;10075;50.924;4.396;2023-05-16T07:02:09;12.37;;;2.00;;
19828;SDS011;10075;50.924;4.396;2023-05-16T07:04:36;10.83;;;1.97;;
19828;SDS011;10075;50.924;4.396;2023-05-16T07:07:05;62.33;;;6.63;;
19828;SDS011;10075;50.924;4.396;2023-05-16T07:09:33;47.10;;;7.10;;
19828;SDS011;10075;50.924;4.396;2023-05-16T07:12:00;51.80;;;6.60;;
19828;SDS011;10075;50.924;4.396;2023-05-16T07:14:27;16.03;;;2.40;;
19828;SDS011;10075;50.924;4.396;2023-05-16T07:16:54;15.90;;;2.13;;
19828;SDS011;10075;50.924;4.396;2023-05-16T07:19:21;5.43;;;1.87;;
19828;SDS011;10075;50.924;4.396;2023-05-16T07:21:48;14.30;;;2.23;;
19828;SDS011;10075;50.924;4.396;2023-05-16T07:24:17;12.67;;;1.83;;
19828;SDS011;10075;50.924;4.396;2023-05-16T07:26:44;14.87;;;2.17;;
19828;SDS011;10075;50.924;4.396;2023-05-16T07:29:11;14.27;;;2.13;;
19828;SDS011;10075;50.924;4.396;2023-05-16T07:31:38;13.47;;;2.07;;
19828;SDS011;10075;50.924;4.396;2023-05-16T07:34:05;10.83;;;1.60;;
19828;SDS011;10075;50.924;4.396;2023-05-16T07:36:32;9.90;;;2.00;;
19828;SDS011;10075;50.924;4.396;2023-05-16T07:38:59;6.70;;;1.90;;
19828;SDS011;10075;50.924;4.396;2023-05-16T07:41:28;9.00;;;1.90;;
19828;SDS011;10075;50.924;4.396;2023-05-16T07:43:55;9.97;;;1.83;;
19828;SDS011;10075;50.924;4.396;2023-05-16T07:46:22;10.80;;;1.90;;
19828;SDS011;10075;50.924;4.396;2023-05-16T07:48:49;7.77;;;1.50;;
19828;SDS011;10075;50.924;4.396;2023-05-16T07:51:16;10.43;;;1.53;;
19828;SDS011;10075;50.924;4.396;2023-05-16T07:53:43;10.13;;;2.23;;
19828;SDS011;10075;50.924;4.396;2023-05-16T07:56:11;5.20;;;1.30;;
19828;SDS011;10075;50.924;4.396;2023-05-16T07:58:39;11.53;;;2.00;;
19828;SDS011;10075;50.924;4.396;2023-05-16T08:01:07;10.90;;;2.00;;
19828;SDS011;10075;50.924;4.396;2023-05-16T08:03:34;10.52;;;2.28;;
19828;SDS011;10075;50.924;4.396;2023-05-16T08:06:01;12.70;;;1.93;;
19828;SDS011;10075;50.924;4.396;2023-05-16T08:08:28;5.35;;;1.42;;
19828;SDS011;10075;50.924;4.396;2023-05-16T08:10:55;9.97;;;2.40;;
19828;SDS011;10075;50.924;4.396;2023-05-16T08:13:22;9.60;;;1.83;;
19828;SDS011;10075;50.924;4.396;2023-05-16T08:15:51;10.70;;;2.00;;
19828;SDS011;10075;50.924;4.396;2023-05-16T08:18:18;9.50;;;2.20;;
19828;SDS011;10075;50.924;4.396;2023-05-16T08:20:45;5.70;;;1.48;;
19828;SDS011;10075;50.924;4.396;2023-05-16T08:23:12;6.60;;;1.53;;
19828;SDS011;10075;50.924;4.396;2023-05-16T08:25:40;4.30;;;1.17;;
19828;SDS011;10075;50.924;4.396;2023-05-16T08:28:07;9.05;;;1.52;;
19828;SDS011;10075;50.924;4.396;2023-05-16T08:30:34;14.40;;;2.28;;
19828;SDS011;10075;50.924;4.396;2023-05-16T08:33:02;8.48;;;2.47;;
19828;SDS011;10075;50.924;4.396;2023-05-16T08:35:31;10.68;;;1.65;;
19828;SDS011;10075;50.924;4.396;2023-05-16T08:37:59;3.83;;;1.00;;
19828;SDS011;10075;50.924;4.396;2023-05-16T08:40:27;9.65;;;1.40;;
19828;SDS011;10075;50.924;4.396;2023-05-16T08:42:55;8.50;;;1.65;;
19828;SDS011;10075;50.924;4.396;2023-05-16T08:45:22;5.77;;;1.20;;
19828;SDS011;10075;50.924;4.396;2023-05-16T08:47:50;8.10;;;1.50;;
19828;SDS011;10075;50.924;4.396;2023-05-16T08:50:22;6.72;;;1.92;;
19828;SDS011;10075;50.924;4.396;2023-05-16T08:52:50;9.07;;;1.90;;
19828;SDS011;10075;50.924;4.396;2023-05-16T08:55:19;6.95;;;1.88;;
19828;SDS011;10075;50.924;4.396;2023-05-16T08:57:48;7.93;;;1.70;;
19828;SDS011;10075;50.924;4.396;2023-05-16T09:00:16;8.13;;;1.73;;
19828;SDS011;10075;50.924;4.396;2023-05-16T09:02:44;7.63;;;1.40;;
19828;SDS011;10075;50.924;4.396;2023-05-16T09:05:11;9.52;;;1.65;;
19828;SDS011;10075;50.924;4.396;2023-05-16T09:07:41;5.20;;;1.30;;
19828;SDS011;10075;50.924;4.396;2023-05-16T09:10:09;8.32;;;1.63;;
19828;SDS011;10075;50.924;4.396;2023-05-16T09:12:37;10.07;;;1.70;;
19828;SDS011;10075;50.924;4.396;2023-05-16T09:15:06;6.22;;;1.42;;
19828;SDS011;10075;50.924;4.396;2023-05-16T09:17:35;7.43;;;1.63;;
19828;SDS011;10075;50.924;4.396;2023-05-16T09:20:09;5.80;;;1.48;;
19828;SDS011;10075;50.924;4.396;2023-05-16T09:22:48;6.45;;;1.20;;
19828;SDS011;10075;50.924;4.396;2023-05-16T09:25:17;6.05;;;1.85;;
19828;SDS011;10075;50.924;4.396;2023-05-16T09:27:45;5.78;;;1.65;;
19828;SDS011;10075;50.924;4.396;2023-05-16T09:30:13;6.78;;;1.67;;
19828;SDS011;10075;50.924;4.396;2023-05-16T09:32:42;6.22;;;1.70;;
19828;SDS011;10075;50.924;4.396;2023-05-16T09:35:10;6.30;;;1.45;;
19828;SDS011;10075;50.924;4.396;2023-05-16T09:37:44;5.80;;;1.48;;
19828;SDS011;10075;50.924;4.396;2023-05-16T09:40:12;5.82;;;1.15;;
19828;SDS011;10075;50.924;4.396;2023-05-16T09:42:40;8.77;;;1.60;;
19828;SDS011;10075;50.924;4.396;2023-05-16T09:45:10;10.05;;;1.88;;
19828;SDS011;10075;50.924;4.396;2023-05-16T09:47:39;5.45;;;1.33;;
19828;SDS011;10075;50.924;4.396;2023-05-16T09:50:10;6.00;;;1.48;;
19828;SDS011;10075;50.924;4.396;2023-05-16T09:52:40;3.90;;;1.10;;
19828;SDS011;10075;50.924;4.396;2023-05-16T09:55:09;6.75;;;1.30;;
19828;SDS011;10075;50.924;4.396;2023-05-16T09:57:36;3.63;;;1.20;;
19828;SDS011;10075;50.924;4.396;2023-05-16T10:00:05;4.93;;;1.50;;
19828;SDS011;10075;50.924;4.396;2023-05-16T10:02:36;5.07;;;1.50;;
19828;SDS011;10075;50.924;4.396;2023-05-16T10:05:03;5.95;;;1.02;;
19828;SDS011;10075;50.924;4.396;2023-05-16T10:07:31;8.57;;;1.50;;
19828;SDS011;10075;50.924;4.396;2023-05-16T10:09:59;9.90;;;1.83;;
19828;SDS011;10075;50.924;4.396;2023-05-16T10:12:31;4.68;;;1.13;;
19828;SDS011;10075;50.924;4.396;2023-05-16T10:14:59;2.83;;;1.05;;
19828;SDS011;10075;50.924;4.396;2023-05-16T10:17:29;3.88;;;0.98;;
19828;SDS011;10075;50.924;4.396;2023-05-16T10:19:59;6.97;;;1.00;;
19828;SDS011;10075;50.924;4.396;2023-05-16T10:22:31;7.15;;;1.23;;
19828;SDS011;10075;50.924;4.396;2023-05-16T10:25:03;3.55;;;1.00;;
19828;SDS011;10075;50.924;4.396;2023-05-16T10:27:39;3.47;;;1.20;;
19828;SDS011;10075;50.924;4.396;2023-05-16T10:30:08;4.82;;;1.17;;
19828;SDS011;10075;50.924;4.396;2023-05-16T10:32:36;5.20;;;1.35;;
19828;SDS011;10075;50.924;4.396;2023-05-16T10:35:05;6.53;;;1.20;;
19828;SDS011;10075;50.924;4.396;2023-05-16T10:37:33;6.13;;;1.13;;
19828;SDS011;10075;50.924;4.396;2023-05-16T10:40:01;4.65;;;1.80;;
19828;SDS011;10075;50.924;4.396;2023-05-16T10:42:30;5.80;;;1.23;;
19828;SDS011;10075;50.924;4.396;2023-05-16T10:45:09;2.85;;;1.05;;
19828;SDS011;10075;50.924;4.396;2023-05-16T10:47:49;4.80;;;0.93;;
19828;SDS011;10075;50.924;4.396;2023-05-16T10:50:29;7.07;;;1.52;;
19828;SDS011;10075;50.924;4.396;2023-05-16T10:53:17;5.07;;;1.15;;
19828;SDS011;10075;50.924;4.396;2023-05-16T10:55:48;5.72;;;1.38;;
19828;SDS011;10075;50.924;4.396;2023-05-16T10:58:38;4.88;;;1.27;;
19828;SDS011;10075;50.924;4.396;2023-05-16T11:01:26;7.28;;;1.40;;
19828;SDS011;10075;50.924;4.396;2023-05-16T11:04:00;4.07;;;1.13;;
19828;SDS011;10075;50.924;4.396;2023-05-16T11:06:30;4.43;;;1.17;;
19828;SDS011;10075;50.924;4.396;2023-05-16T11:09:16;5.20;;;1.50;;
19828;SDS011;10075;50.924;4.396;2023-05-16T11:11:53;4.13;;;1.10;;
19828;SDS011;10075;50.924;4.396;2023-05-16T11:14:25;8.50;;;1.20;;
19828;SDS011;10075;50.924;4.396;2023-05-16T11:17:00;6.50;;;1.30;;
19828;SDS011;10075;50.924;4.396;2023-05-16T11:19:29;3.65;;;0.85;;
19828;SDS011;10075;50.924;4.396;2023-05-16T11:22:07;6.00;;;1.52;;
19828;SDS011;10075;50.924;4.396;2023-05-16T11:24:53;7.05;;;1.38;;
19828;SDS011;10075;50.924;4.396;2023-05-16T11:27:26;4.75;;;1.10;;
19828;SDS011;10075;50.924;4.396;2023-05-16T11:29:57;12.55;;;1.30;;
19828;SDS011;10075;50.924;4.396;2023-05-16T11:32:27;3.75;;;1.23;;
19828;SDS011;10075;50.924;4.396;2023-05-16T11:34:55;6.65;;;1.33;;
19828;SDS011;10075;50.924;4.396;2023-05-16T11:37:24;4.28;;;1.00;;
19828;SDS011;10075;50.924;4.396;2023-05-16T11:39:51;7.68;;;1.27;;
19828;SDS011;10075;50.924;4.396;2023-05-16T11:42:18;4.38;;;1.17;;
19828;SDS011;10075;50.924;4.396;2023-05-16T11:44:45;5.20;;;1.02;;
19828;SDS011;10075;50.924;4.396;2023-05-16T11:47:13;7.40;;;1.40;;
19828;SDS011;10075;50.924;4.396;2023-05-16T11:49:41;10.85;;;1.77;;
19828;SDS011;10075;50.924;4.396;2023-05-16T11:52:09;5.25;;;1.08;;
19828;SDS011;10075;50.924;4.396;2023-05-16T11:54:36;9.18;;;1.92;;
19828;SDS011;10075;50.924;4.396;2023-05-16T11:57:03;6.63;;;1.30;;
19828;SDS011;10075;50.924;4.396;2023-05-16T11:59:31;6.30;;;0.95;;
19828;SDS011;10075;50.924;4.396;2023-05-16T12:01:58;5.93;;;0.82;;
19828;SDS011;10075;50.924;4.396;2023-05-16T12:04:29;6.90;;;0.93;;
19828;SDS011;10075;50.924;4.396;2023-05-16T12:06:59;5.30;;;1.08;;
19828;SDS011;10075;50.924;4.396;2023-05-16T12:09:28;4.57;;;1.17;;
19828;SDS011;10075;50.924;4.396;2023-05-16T12:11:55;6.25;;;1.83;;
19828;SDS011;10075;50.924;4.396;2023-05-16T12:14:22;5.28;;;1.00;;
19828;SDS011;10075;50.924;4.396;2023-05-16T12:16:51;2.55;;;0.70;;
19828;SDS011;10075;50.924;4.396;2023-05-16T12:19:19;6.35;;;1.20;;
19828;SDS011;10075;50.924;4.396;2023-05-16T12:21:46;6.03;;;1.15;;
19828;SDS011;10075;50.924;4.396;2023-05-16T12:24:15;5.35;;;1.30;;
19828;SDS011;10075;50.924;4.396;2023-05-16T12:26:42;4.80;;;1.02;;
19828;SDS011;10075;50.924;4.396;2023-05-16T12:29:09;6.13;;;1.33;;
19828;SDS011;10075;50.924;4.396;2023-05-16T12:31:37;6.43;;;1.45;;
19828;SDS011;10075;50.924;4.396;2023-05-16T12:34:13;5.88;;;1.33;;
19828;SDS011;10075;50.924;4.396;2023-05-16T12:36:42;6.57;;;0.88;;
19828;SDS011;10075;50.924;4.396;2023-05-16T12:39:10;6.40;;;0.98;;
19828;SDS011;10075;50.924;4.396;2023-05-16T12:41:41;4.97;;;1.20;;
19828;SDS011;10075;50.924;4.396;2023-05-16T12:44:11;4.97;;;0.98;;
19828;SDS011;10075;50.924;4.396;2023-05-16T12:46:41;5.07;;;1.10;;
19828;SDS011;10075;50.924;4.396;2023-05-16T12:49:09;4.93;;;0.93;;
19828;SDS011;10075;50.924;4.396;2023-05-16T12:51:37;5.47;;;0.93;;
19828;SDS011;10075;50.924;4.396;2023-05-16T12:54:07;4.63;;;0.90;;
19828;SDS011;10075;50.924;4.396;2023-05-16T12:56:36;3.28;;;0.95;;
19828;SDS011;10075;50.924;4.396;2023-05-16T12:59:05;4.95;;;1.05;;
19828;SDS011;10075;50.924;4.396;2023-05-16T13:01:33;6.25;;;0.93;;
19828;SDS011;10075;50.924;4.396;2023-05-16T13:04:00;4.70;;;1.02;;
19828;SDS011;10075;50.924;4.396;2023-05-16T13:06:28;3.65;;;0.60;;
19828;SDS011;10075;50.924;4.396;2023-05-16T13:08:55;4.18;;;1.23;;
19828;SDS011;10075;50.924;4.396;2023-05-16T13:11:22;5.15;;;1.30;;
19828;SDS011;10075;50.924;4.396;2023-05-16T13:13:50;4.88;;;1.10;;
19828;SDS011;10075;50.924;4.396;2023-05-16T13:16:19;7.28;;;1.02;;
19828;SDS011;10075;50.924;4.396;2023-05-16T13:18:46;5.55;;;1.35;;
19828;SDS011;10075;50.924;4.396;2023-05-16T13:21:13;6.30;;;1.27;;
19828;SDS011;10075;50.924;4.396;2023-05-16T13:23:40;3.25;;;0.85;;
19828;SDS011;10075;50.924;4.396;2023-05-16T13:26:08;3.88;;;0.88;;
19828;SDS011;10075;50.924;4.396;2023-05-16T13:28:35;3.22;;;0.80;;
19828;SDS011;10075;50.924;4.396;2023-05-16T13:31:02;6.60;;;1.10;;
19828;SDS011;10075;50.924;4.396;2023-05-16T13:33:31;3.83;;;1.02;;
19828;SDS011;10075;50.924;4.396;2023-05-16T13:36:00;3.95;;;1.10;;
19828;SDS011;10075;50.924;4.396;2023-05-16T13:38:28;4.88;;;1.13;;
19828;SDS011;10075;50.924;4.396;2023-05-16T13:40:55;6.80;;;0.93;;
19828;SDS011;10075;50.924;4.396;2023-05-16T13:43:22;4.25;;;1.00;;
19828;SDS011;10075;50.924;4.396;2023-05-16T13:45:49;3.72;;;1.13;;
19828;SDS011;10075;50.924;4.396;2023-05-16T13:48:16;4.30;;;0.77;;
19828;SDS011;10075;50.924;4.396;2023-05-16T13:50:44;3.53;;;0.95;;
19828;SDS011;10075;50.924;4.396;2023-05-16T13:53:12;5.65;;;1.08;;
19828;SDS011;10075;50.924;4.396;2023-05-16T13:55:39;5.30;;;0.95;;
19828;SDS011;10075;50.924;4.396;2023-05-16T13:58:06;4.32;;;1.15;;
19828;SDS011;10075;50.924;4.396;2023-05-16T14:00:33;8.88;;;1.30;;
19828;SDS011;10075;50.924;4.396;2023-05-16T14:03:00;4.22;;;0.70;;
19828;SDS011;10075;50.924;4.396;2023-05-16T14:05:27;3.25;;;1.10;;
19828;SDS011;10075;50.924;4.396;2023-05-16T14:07:56;3.95;;;1.10;;
19828;SDS011;10075;50.924;4.396;2023-05-16T14:10:23;1.90;;;0.95;;
19828;SDS011;10075;50.924;4.396;2023-05-16T14:12:50;5.13;;;1.25;;
19828;SDS011;10075;50.924;4.396;2023-05-16T14:15:18;4.55;;;1.48;;
19828;SDS011;10075;50.924;4.396;2023-05-16T14:17:45;3.85;;;0.80;;
19828;SDS011;10075;50.924;4.396;2023-05-16T14:20:12;4.10;;;0.90;;
19828;SDS011;10075;50.924;4.396;2023-05-16T14:22:39;4.72;;;1.05;;
19828;SDS011;10075;50.924;4.396;2023-05-16T14:25:08;3.75;;;1.20;;
19828;SDS011;10075;50.924;4.396;2023-05-16T14:27:35;3.97;;;1.02;;
19828;SDS011;10075;50.924;4.396;2023-05-16T14:30:03;2.95;;;0.80;;
19828;SDS011;10075;50.924;4.396;2023-05-16T14:32:30;4.93;;;1.15;;
19828;SDS011;10075;50.924;4.396;2023-05-16T14:34:57;8.82;;;1.30;;
19828;SDS011;10075;50.924;4.396;2023-05-16T14:37:24;5.30;;;1.15;;
19828;SDS011;10075;50.924;4.396;2023-05-16T14:39:52;5.20;;;1.02;;
19828;SDS011;10075;50.924;4.396;2023-05-16T14:42:20;4.40;;;0.70;;
19828;SDS011;10075;50.924;4.396;2023-05-16T14:44:48;6.47;;;1.20;;
19828;SDS011;10075;50.924;4.396;2023-05-16T14:47:15;2.80;;;0.70;;
19828;SDS011;10075;50.924;4.396;2023-05-16T14:49:42;3.67;;;1.25;;